createdAt,value
2023-05-09T00:00:57.193Z,2.14
2023-05-09T00:03:25.944Z,2.06
2023-05-09T00:05:54.841Z,2.04
2023-05-09T00:08:23.771Z,2.06
2023-05-09T00:10:52.330Z,2.03
2023-05-09T00:13:21.143Z,2.03
2023-05-09T00:15:49.779Z,2.04
2023-05-09T00:18:20.144Z,2.06
2023-05-09T00:20:48.772Z,2.01
2023-05-09T00:23:18.093Z,2.01
2023-05-09T00:25:46.874Z,2.14
2023-05-09T00:28:16.125Z,2.20
2023-05-09T00:30:45.009Z,2.16
2023-05-09T00:33:13.651Z,2.05
2023-05-09T00:35:43.736Z,1.98
2023-05-09T00:38:12.505Z,1.90
2023-05-09T00:40:41.359Z,1.80
2023-05-09T00:43:11.029Z,1.72
2023-05-09T00:45:39.650Z,1.65
2023-05-09T00:48:08.471Z,1.60
2023-05-09T00:50:37.849Z,1.56
2023-05-09T00:53:08.863Z,1.51
2023-05-09T00:55:37.831Z,1.46
2023-05-09T00:58:06.585Z,1.44
2023-05-09T01:00:35.558Z,1.44
2023-05-09T01:03:05.088Z,1.35
2023-05-09T01:05:45.173Z,1.35
2023-05-09T01:08:23.174Z,1.33
2023-05-09T01:10:59.823Z,1.27
2023-05-09T01:13:33.459Z,1.21
2023-05-09T01:16:08.827Z,1.19
2023-05-09T01:18:46.229Z,1.14
2023-05-09T01:21:19.801Z,1.11
2023-05-09T01:24:09.635Z,1.14
2023-05-09T01:26:46.676Z,1.15
2023-05-09T01:29:38.058Z,1.13
2023-05-09T01:32:10.150Z,1.10
2023-05-09T01:34:41.763Z,1.08
2023-05-09T01:37:12.610Z,1.08
2023-05-09T01:39:43.558Z,1.06
2023-05-09T01:42:14.500Z,1.03
2023-05-09T01:44:46.454Z,0.96
2023-05-09T01:47:17.183Z,0.94
2023-05-09T01:49:47.750Z,0.93
2023-05-09T01:52:20.716Z,0.93
2023-05-09T01:54:51.835Z,0.93
2023-05-09T01:57:21.885Z,0.90
2023-05-09T01:59:53.533Z,0.90
2023-05-09T02:02:22.979Z,0.86
2023-05-09T02:04:52.200Z,0.80
2023-05-09T02:07:21.873Z,0.75
2023-05-09T02:09:54.058Z,0.79
2023-05-09T02:12:24.686Z,0.76
2023-05-09T02:14:54.721Z,0.74
2023-05-09T02:17:24.242Z,0.71
2023-05-09T02:19:53.197Z,0.70
2023-05-09T02:22:22.064Z,0.68
2023-05-09T02:24:51.105Z,0.67
2023-05-09T02:27:21.794Z,0.66
2023-05-09T02:29:57.903Z,0.64
2023-05-09T02:32:32.269Z,0.61
2023-05-09T02:35:04.122Z,0.59
2023-05-09T02:37:35.094Z,0.52
2023-05-09T02:40:05.649Z,0.50
2023-05-09T02:42:34.959Z,0.51
2023-05-09T02:45:03.836Z,0.52
2023-05-09T02:47:33.995Z,0.52
2023-05-09T02:50:02.647Z,0.50
2023-05-09T02:52:31.228Z,0.44
2023-05-09T02:55:00.566Z,0.49
2023-05-09T02:57:29.620Z,0.49
2023-05-09T02:59:59.082Z,0.51
2023-05-09T03:02:28.097Z,0.49
2023-05-09T03:04:58.776Z,0.46
2023-05-09T03:07:27.162Z,0.40
2023-05-09T03:09:55.657Z,0.36
2023-05-09T03:12:24.735Z,0.37
2023-05-09T03:14:56.125Z,0.40
2023-05-09T03:17:24.818Z,0.41
2023-05-09T03:19:53.449Z,0.42
2023-05-09T03:22:23.931Z,0.46
2023-05-09T03:25:00.368Z,0.47
2023-05-09T03:27:29.387Z,0.48
2023-05-09T03:29:58.214Z,0.50
2023-05-09T03:32:28.435Z,0.52
2023-05-09T03:34:57.394Z,0.56
2023-05-09T03:37:28.379Z,0.54
2023-05-09T03:39:57.313Z,0.55
2023-05-09T03:42:26.248Z,0.57
2023-05-09T03:45:01.352Z,0.60
2023-05-09T03:47:30.730Z,0.61
2023-05-09T03:50:00.019Z,0.62
2023-05-09T03:52:30.333Z,0.62
2023-05-09T03:54:59.195Z,0.62
2023-05-09T03:57:27.880Z,0.65
2023-05-09T03:59:58.520Z,0.70
2023-05-09T04:02:27.816Z,0.74
2023-05-09T04:04:56.760Z,0.81
2023-05-09T04:07:26.666Z,0.87
2023-05-09T04:09:57.160Z,0.89
2023-05-09T04:12:26.203Z,1.04
2023-05-09T04:14:55.251Z,1.21
2023-05-09T04:17:27.044Z,1.35
2023-05-09T04:19:57.674Z,1.47
2023-05-09T04:22:26.459Z,1.54
2023-05-09T04:24:57.370Z,1.57
2023-05-09T04:27:28.194Z,1.60
2023-05-09T04:29:57.978Z,1.65
2023-05-09T04:32:27.131Z,1.68
2023-05-09T04:34:56.383Z,1.71
2023-05-09T04:37:29.369Z,1.78
2023-05-09T04:40:01.433Z,1.85
2023-05-09T04:42:38.840Z,1.88
2023-05-09T04:45:09.601Z,2.01
2023-05-09T04:47:38.524Z,2.11
2023-05-09T04:50:08.190Z,2.29
2023-05-09T04:52:36.954Z,2.50
2023-05-09T04:55:08.678Z,2.68
2023-05-09T04:57:41.835Z,2.92
2023-05-09T05:00:12.752Z,3.12
2023-05-09T05:02:42.441Z,3.29
2023-05-09T05:05:12.742Z,3.43
2023-05-09T05:07:44.204Z,3.55
2023-05-09T05:10:18.670Z,3.67
2023-05-09T05:12:52.413Z,3.81
2023-05-09T05:15:21.011Z,3.96
2023-05-09T05:17:50.568Z,4.13
2023-05-09T05:20:22.883Z,4.31
2023-05-09T05:22:52.097Z,4.48
2023-05-09T05:25:22.470Z,4.64
2023-05-09T05:27:54.038Z,4.80
2023-05-09T05:30:23.065Z,4.97
2023-05-09T05:32:51.724Z,5.14
2023-05-09T05:35:23.476Z,5.33
2023-05-09T05:37:53.813Z,5.50
2023-05-09T05:40:27.670Z,5.70
2023-05-09T05:42:57.441Z,5.91
2023-05-09T05:45:33.756Z,6.21
2023-05-09T05:48:13.048Z,6.52
2023-05-09T05:50:45.344Z,6.81
2023-05-09T05:53:19.012Z,7.10
2023-05-09T05:55:54.297Z,7.33
2023-05-09T05:58:26.453Z,7.66
2023-05-09T06:00:56.638Z,7.96
2023-05-09T06:03:28.731Z,8.25
2023-05-09T06:06:01.707Z,8.55
2023-05-09T06:08:32.119Z,8.85
2023-05-09T06:11:02.500Z,9.11
2023-05-09T06:13:31.088Z,9.38
2023-05-09T06:16:18.540Z,9.61
2023-05-09T06:18:52.081Z,9.87
2023-05-09T06:21:23.570Z,10.13
2023-05-09T06:24:06.556Z,10.39
2023-05-09T06:26:40.672Z,10.69
2023-05-09T06:29:10.081Z,10.92
2023-05-09T06:31:40.964Z,11.16
2023-05-09T06:34:09.783Z,11.45
2023-05-09T06:36:38.605Z,11.63
2023-05-09T06:39:18.331Z,11.90
2023-05-09T06:41:48.909Z,12.17
2023-05-09T06:44:28.207Z,12.44
2023-05-09T06:46:57.313Z,12.71
2023-05-09T06:49:26.669Z,12.93
2023-05-09T06:51:55.664Z,13.14
2023-05-09T06:54:24.772Z,13.37
2023-05-09T06:56:55.370Z,13.57
2023-05-09T06:59:24.005Z,13.86
2023-05-09T07:01:53.203Z,14.11
2023-05-09T07:04:22.199Z,14.30
2023-05-09T07:06:53.535Z,14.52
2023-05-09T07:09:28.049Z,14.69
2023-05-09T07:11:58.486Z,14.87
2023-05-09T07:14:27.709Z,14.98
2023-05-09T07:17:18.116Z,15.15
2023-05-09T07:19:53.170Z,15.32
2023-05-09T07:22:22.246Z,15.44
2023-05-09T07:24:53.880Z,15.59
2023-05-09T07:27:24.378Z,15.77
2023-05-09T07:29:53.507Z,15.92
2023-05-09T07:32:22.427Z,16.08
2023-05-09T07:34:51.397Z,16.06
2023-05-09T07:37:20.542Z,16.14
2023-05-09T07:39:49.680Z,16.30
2023-05-09T07:42:19.118Z,16.43
2023-05-09T07:44:49.252Z,16.61
2023-05-09T07:47:18.248Z,16.76
2023-05-09T07:49:48.212Z,16.95
2023-05-09T07:52:17.582Z,17.13
2023-05-09T07:54:49.936Z,17.26
2023-05-09T07:57:19.133Z,17.37
2023-05-09T07:59:49.255Z,17.45
2023-05-09T08:02:20.757Z,17.66
2023-05-09T08:04:49.597Z,17.78
2023-05-09T08:07:18.588Z,17.88
2023-05-09T08:09:47.360Z,18.01
2023-05-09T08:12:16.170Z,18.13
2023-05-09T08:14:44.901Z,18.21
2023-05-09T08:17:15.418Z,18.33
2023-05-09T08:19:46.525Z,18.48
2023-05-09T08:22:19.382Z,18.47
2023-05-09T08:24:48.378Z,18.57
2023-05-09T08:27:17.381Z,18.85
2023-05-09T08:29:46.515Z,18.99
2023-05-09T08:32:17.076Z,19.21
2023-05-09T08:34:46.296Z,19.34
2023-05-09T08:37:15.691Z,19.21
2023-05-09T08:39:45.712Z,19.13
2023-05-09T08:42:20.214Z,19.02
2023-05-09T08:44:49.397Z,19.18
2023-05-09T08:47:21.292Z,19.22
2023-05-09T08:49:52.082Z,19.40
2023-05-09T08:52:21.527Z,19.57
2023-05-09T08:54:53.759Z,19.86
2023-05-09T08:57:23.019Z,19.98
2023-05-09T08:59:53.927Z,20.01
2023-05-09T09:02:25.000Z,20.15
2023-05-09T09:04:56.228Z,20.35
2023-05-09T09:07:31.036Z,20.46
2023-05-09T09:10:01.002Z,20.35
2023-05-09T09:12:35.167Z,20.32
2023-05-09T09:15:07.213Z,20.68
2023-05-09T09:17:44.242Z,20.91
2023-05-09T09:20:16.810Z,21.14
2023-05-09T09:22:49.451Z,21.23
2023-05-09T09:25:18.894Z,21.28
2023-05-09T09:27:47.576Z,21.36
2023-05-09T09:30:20.189Z,21.55
2023-05-09T09:32:50.745Z,21.66
2023-05-09T09:35:20.322Z,21.75
2023-05-09T09:37:54.041Z,21.88
2023-05-09T09:40:27.298Z,21.88
2023-05-09T09:42:57.190Z,22.05
2023-05-09T09:45:28.151Z,22.11
2023-05-09T09:47:58.686Z,22.23
2023-05-09T09:50:28.438Z,22.22
2023-05-09T09:53:01.044Z,22.39
2023-05-09T09:55:30.895Z,22.53
2023-05-09T09:58:01.004Z,22.63
2023-05-09T10:00:32.833Z,22.73
2023-05-09T10:03:03.354Z,22.75
2023-05-09T10:05:34.532Z,22.65
2023-05-09T10:08:07.738Z,22.57
2023-05-09T10:10:39.044Z,22.61
2023-05-09T10:13:10.580Z,22.67
2023-05-09T10:15:52.198Z,22.82
2023-05-09T10:18:31.210Z,23.07
2023-05-09T10:21:03.630Z,23.04
2023-05-09T10:23:38.522Z,22.93
2023-05-09T10:26:18.262Z,23.01
2023-05-09T10:28:50.525Z,23.00
2023-05-09T10:31:29.600Z,22.93
2023-05-09T10:34:06.979Z,22.41
2023-05-09T10:36:36.750Z,22.52
2023-05-09T10:39:06.699Z,22.88
2023-05-09T10:41:37.201Z,23.01
2023-05-09T10:44:07.088Z,23.07
2023-05-09T10:46:37.321Z,23.45
2023-05-09T10:49:14.693Z,23.63
2023-05-09T10:51:46.681Z,23.71
2023-05-09T10:54:16.919Z,23.47
2023-05-09T10:56:46.239Z,23.41
2023-05-09T10:59:37.200Z,22.61
2023-05-09T11:02:07.519Z,22.59
2023-05-09T11:04:40.752Z,22.83
2023-05-09T11:07:26.262Z,23.24
2023-05-09T11:10:12.885Z,23.57
2023-05-09T11:12:57.751Z,22.54
2023-05-09T11:15:28.225Z,22.29
2023-05-09T11:18:08.680Z,22.34
2023-05-09T11:20:44.667Z,22.76
2023-05-09T11:23:16.121Z,23.25
2023-05-09T11:25:48.658Z,23.55
2023-05-09T11:28:29.607Z,23.86
2023-05-09T11:31:12.905Z,23.84
2023-05-09T11:33:45.524Z,23.79
2023-05-09T11:36:20.956Z,23.91
2023-05-09T11:38:50.335Z,23.83
2023-05-09T11:41:20.211Z,23.88
2023-05-09T11:43:52.045Z,23.94
2023-05-09T11:46:21.158Z,24.07
2023-05-09T11:48:51.643Z,23.92
2023-05-09T11:51:22.325Z,23.66
2023-05-09T11:53:54.320Z,23.63
2023-05-09T11:56:24.323Z,23.82
2023-05-09T11:58:55.746Z,23.47
2023-05-09T12:01:25.021Z,23.39
2023-05-09T12:03:54.738Z,23.69
2023-05-09T12:06:26.481Z,23.72
2023-05-09T12:08:58.252Z,23.54
2023-05-09T12:11:27.555Z,23.77
2023-05-09T12:13:56.886Z,23.97
2023-05-09T12:16:26.826Z,23.97
2023-05-09T12:18:56.154Z,23.75
2023-05-09T12:21:26.965Z,23.85
2023-05-09T12:23:58.011Z,24.07
2023-05-09T12:26:29.314Z,24.28
2023-05-09T12:28:59.492Z,24.08
2023-05-09T12:31:29.640Z,23.89
2023-05-09T12:34:00.576Z,23.75
2023-05-09T12:36:41.888Z,23.72
2023-05-09T12:39:11.735Z,23.48
2023-05-09T12:41:57.407Z,23.53
2023-05-09T12:44:30.881Z,23.36
2023-05-09T12:47:02.398Z,23.37
2023-05-09T12:49:50.253Z,23.28
2023-05-09T12:52:21.947Z,23.26
2023-05-09T12:54:50.655Z,23.39
2023-05-09T12:57:24.681Z,23.21
2023-05-09T12:59:59.925Z,23.29
2023-05-09T13:02:29.636Z,23.53
2023-05-09T13:05:20.867Z,23.76
2023-05-09T13:07:56.240Z,23.67
2023-05-09T13:10:27.711Z,23.52
2023-05-09T13:12:57.513Z,23.39
2023-05-09T13:15:29.831Z,23.31
2023-05-09T13:18:08.599Z,23.26
2023-05-09T13:20:37.812Z,23.33
2023-05-09T13:23:08.231Z,23.37
2023-05-09T13:25:37.208Z,23.42
2023-05-09T13:28:06.491Z,23.38
2023-05-09T13:30:35.981Z,23.22
2023-05-09T13:33:16.550Z,23.12
2023-05-09T13:35:53.814Z,23.00
2023-05-09T13:38:41.928Z,23.02
2023-05-09T13:41:11.896Z,23.09
2023-05-09T13:43:42.831Z,22.97
2023-05-09T13:46:12.254Z,23.00
2023-05-09T13:48:51.014Z,23.06
2023-05-09T13:51:21.494Z,22.90
2023-05-09T13:53:52.201Z,22.56
2023-05-09T13:56:22.732Z,22.44
2023-05-09T13:58:56.921Z,22.49
2023-05-09T14:01:26.121Z,22.37
2023-05-09T14:03:54.981Z,22.18
2023-05-09T14:06:24.469Z,22.34
2023-05-09T14:08:54.784Z,22.39
2023-05-09T14:11:25.572Z,22.35
2023-05-09T14:13:57.552Z,22.33
2023-05-09T14:16:28.994Z,22.14
2023-05-09T14:18:58.604Z,22.05
2023-05-09T14:21:29.869Z,21.95
2023-05-09T14:24:01.366Z,21.88
2023-05-09T14:26:30.801Z,21.75
2023-05-09T14:29:00.067Z,21.67
2023-05-09T14:31:29.344Z,21.58
2023-05-09T14:34:00.638Z,21.21
2023-05-09T14:36:33.810Z,21.12
2023-05-09T14:39:06.780Z,21.13
2023-05-09T14:41:36.140Z,21.12
2023-05-09T14:44:05.203Z,21.01
2023-05-09T14:46:37.307Z,20.90
2023-05-09T14:49:06.450Z,20.83
2023-05-09T14:51:36.497Z,20.73
2023-05-09T14:54:07.101Z,20.50
2023-05-09T14:56:36.197Z,20.40
2023-05-09T14:59:05.065Z,20.40
2023-05-09T15:01:37.917Z,20.42
2023-05-09T15:04:07.219Z,20.37
2023-05-09T15:06:36.492Z,20.31
2023-05-09T15:09:07.989Z,20.21
2023-05-09T15:11:47.899Z,20.18
2023-05-09T15:14:17.856Z,20.13
2023-05-09T15:16:51.895Z,20.07
2023-05-09T15:19:24.369Z,20.01
2023-05-09T15:21:54.657Z,19.92
2023-05-09T15:24:26.922Z,19.64
2023-05-09T15:26:56.263Z,19.55
2023-05-09T15:29:25.176Z,19.46
2023-05-09T15:31:55.558Z,19.41
2023-05-09T15:34:26.117Z,19.29
2023-05-09T15:36:55.199Z,19.09
2023-05-09T15:39:27.448Z,18.98
2023-05-09T15:41:56.482Z,18.91
2023-05-09T15:44:27.761Z,18.96
2023-05-09T15:46:58.676Z,18.92
2023-05-09T15:49:27.646Z,18.79
2023-05-09T15:51:56.392Z,18.72
2023-05-09T15:54:27.195Z,18.67
2023-05-09T15:56:56.431Z,18.54
2023-05-09T15:59:25.783Z,18.40
2023-05-09T16:01:54.918Z,18.31
2023-05-09T16:04:24.563Z,18.18
2023-05-09T16:06:58.544Z,18.05
2023-05-09T16:09:28.819Z,17.94
2023-05-09T16:11:57.748Z,17.83
2023-05-09T16:14:27.021Z,17.76
2023-05-09T16:16:56.613Z,17.68
2023-05-09T16:19:27.545Z,17.59
2023-05-09T16:21:56.810Z,17.45
2023-05-09T16:24:25.647Z,17.31
2023-05-09T16:26:55.954Z,17.24
2023-05-09T16:29:25.615Z,17.16
2023-05-09T16:31:54.368Z,16.97
2023-05-09T16:34:23.132Z,16.88
2023-05-09T16:36:52.606Z,16.80
2023-05-09T16:39:22.734Z,16.72
2023-05-09T16:41:51.632Z,16.64
2023-05-09T16:44:22.695Z,16.54
2023-05-09T16:46:51.801Z,16.41
2023-05-09T16:49:21.035Z,16.25
2023-05-09T16:51:50.408Z,16.14
2023-05-09T16:54:20.681Z,16.08
2023-05-09T16:56:49.820Z,16.03
2023-05-09T16:59:20.313Z,16.01
2023-05-09T17:01:53.849Z,15.97
2023-05-09T17:04:24.952Z,15.86
2023-05-09T17:06:54.302Z,15.79
2023-05-09T17:09:23.603Z,15.70
2023-05-09T17:11:52.400Z,15.62
2023-05-09T17:14:21.507Z,15.56
2023-05-09T17:16:55.481Z,15.49
2023-05-09T17:19:24.151Z,15.44
2023-05-09T17:21:56.110Z,15.32
2023-05-09T17:24:25.258Z,15.24
2023-05-09T17:26:57.125Z,15.16
2023-05-09T17:29:31.693Z,15.14
2023-05-09T17:32:02.486Z,15.04
2023-05-09T17:34:32.398Z,15.02
2023-05-09T17:37:02.545Z,14.94
2023-05-09T17:39:31.449Z,14.87
2023-05-09T17:42:00.518Z,14.81
2023-05-09T17:44:30.566Z,14.69
2023-05-09T17:46:59.746Z,14.60
2023-05-09T17:49:30.070Z,14.52
2023-05-09T17:51:59.977Z,14.45
2023-05-09T17:54:28.872Z,14.36
2023-05-09T17:57:01.518Z,14.26
2023-05-09T17:59:30.887Z,14.16
2023-05-09T18:02:00.413Z,14.07
2023-05-09T18:04:32.873Z,13.97
2023-05-09T18:07:02.802Z,13.91
2023-05-09T18:09:32.371Z,13.82
2023-05-09T18:12:00.919Z,13.74
2023-05-09T18:14:29.860Z,13.70
2023-05-09T18:16:58.898Z,13.62
2023-05-09T18:19:27.587Z,13.50
2023-05-09T18:21:57.880Z,13.39
2023-05-09T18:24:28.200Z,13.28
2023-05-09T18:26:57.366Z,13.15
2023-05-09T18:29:26.106Z,12.99
2023-05-09T18:31:56.220Z,12.83
2023-05-09T18:34:25.060Z,12.64
2023-05-09T18:36:54.034Z,12.56
2023-05-09T18:39:26.002Z,12.46
2023-05-09T18:41:54.933Z,12.39
2023-05-09T18:44:23.734Z,12.31
2023-05-09T18:46:54.124Z,12.16
2023-05-09T18:49:26.067Z,11.99
2023-05-09T18:51:56.585Z,11.89
2023-05-09T18:54:29.926Z,11.91
2023-05-09T18:57:01.828Z,11.93
2023-05-09T18:59:31.992Z,11.97
2023-05-09T19:02:01.528Z,11.98
2023-05-09T19:04:30.681Z,11.88
2023-05-09T19:07:00.280Z,11.70
2023-05-09T19:09:30.848Z,11.46
2023-05-09T19:12:04.567Z,11.30
2023-05-09T19:14:34.810Z,11.19
2023-05-09T19:17:05.010Z,11.10
2023-05-09T19:19:34.789Z,11.04
2023-05-09T19:22:04.499Z,10.96
2023-05-09T19:24:34.635Z,10.87
2023-05-09T19:27:05.495Z,10.82
2023-05-09T19:29:34.654Z,10.79
2023-05-09T19:32:03.970Z,10.69
2023-05-09T19:34:32.869Z,10.58
2023-05-09T19:37:01.669Z,10.53
2023-05-09T19:39:30.722Z,10.51
2023-05-09T19:42:01.980Z,10.51
2023-05-09T19:44:31.764Z,10.49
2023-05-09T19:47:02.301Z,10.39
2023-05-09T19:49:31.415Z,10.29
2023-05-09T19:52:00.348Z,10.26
2023-05-09T19:54:28.858Z,10.34
2023-05-09T19:56:57.783Z,10.44
2023-05-09T19:59:28.272Z,10.45
2023-05-09T20:01:57.509Z,10.35
2023-05-09T20:04:26.453Z,10.22
2023-05-09T20:06:55.219Z,10.16
2023-05-09T20:09:24.455Z,10.16
2023-05-09T20:11:53.394Z,10.15
2023-05-09T20:14:22.420Z,10.16
2023-05-09T20:16:55.094Z,10.14
2023-05-09T20:19:23.661Z,10.10
2023-05-09T20:21:52.309Z,10.08
2023-05-09T20:24:26.668Z,10.09
2023-05-09T20:26:55.886Z,10.16
2023-05-09T20:29:26.293Z,10.13
2023-05-09T20:31:56.984Z,10.16
2023-05-09T20:34:27.386Z,10.21
2023-05-09T20:36:58.717Z,10.21
2023-05-09T20:39:27.658Z,10.25
2023-05-09T20:41:58.786Z,10.25
2023-05-09T20:44:27.505Z,10.16
2023-05-09T20:46:57.657Z,10.03
2023-05-09T20:49:27.391Z,9.90
2023-05-09T20:51:56.562Z,9.77
2023-05-09T20:54:25.253Z,9.57
2023-05-09T20:56:53.756Z,9.38
2023-05-09T20:59:23.492Z,9.34
2023-05-09T21:01:55.689Z,9.39
2023-05-09T21:04:26.268Z,9.42
2023-05-09T21:06:55.230Z,9.41
2023-05-09T21:09:24.300Z,9.41
2023-05-09T21:11:52.890Z,9.44
2023-05-09T21:14:21.986Z,9.49
2023-05-09T21:16:55.499Z,9.49
2023-05-09T21:19:25.858Z,9.41
2023-05-09T21:21:55.723Z,9.33
2023-05-09T21:24:24.620Z,9.13
2023-05-09T21:26:53.512Z,8.98
2023-05-09T21:29:22.757Z,8.87
2023-05-09T21:31:51.559Z,8.85
2023-05-09T21:34:20.627Z,8.85
2023-05-09T21:36:50.905Z,8.79
2023-05-09T21:39:20.516Z,8.79
2023-05-09T21:41:49.435Z,8.79
2023-05-09T21:44:18.518Z,8.73
2023-05-09T21:46:47.480Z,8.67
2023-05-09T21:49:18.544Z,8.57
2023-05-09T21:51:47.132Z,8.44
2023-05-09T21:54:17.490Z,8.31
2023-05-09T21:56:46.606Z,8.26
2023-05-09T21:59:15.389Z,8.10
2023-05-09T22:01:46.005Z,8.05
2023-05-09T22:04:15.008Z,7.91
2023-05-09T22:06:46.532Z,7.77
2023-05-09T22:09:17.157Z,7.63
2023-05-09T22:11:48.832Z,7.54
2023-05-09T22:14:18.862Z,7.44
2023-05-09T22:16:50.149Z,7.35
2023-05-09T22:19:18.753Z,7.29
2023-05-09T22:21:49.132Z,7.25
2023-05-09T22:24:19.734Z,7.27
2023-05-09T22:26:48.660Z,7.29
2023-05-09T22:29:17.872Z,7.35
2023-05-09T22:31:46.740Z,7.38
2023-05-09T22:34:15.845Z,7.43
2023-05-09T22:36:47.120Z,7.45
2023-05-09T22:39:16.791Z,7.52
2023-05-09T22:41:51.274Z,7.56
2023-05-09T22:44:20.316Z,7.63
2023-05-09T22:46:49.031Z,7.66
2023-05-09T22:49:18.526Z,7.78
2023-05-09T22:51:47.037Z,7.87
2023-05-09T22:54:20.619Z,7.88
2023-05-09T22:56:50.832Z,7.91
2023-05-09T22:59:20.551Z,7.99
2023-05-09T23:01:49.775Z,8.03
2023-05-09T23:04:19.497Z,8.08
2023-05-09T23:06:48.287Z,8.12
2023-05-09T23:09:17.016Z,8.19
2023-05-09T23:11:46.386Z,8.21
2023-05-09T23:14:16.697Z,8.13
2023-05-09T23:16:47.041Z,7.97
2023-05-09T23:19:16.294Z,7.83
2023-05-09T23:21:45.056Z,7.70
2023-05-09T23:24:15.500Z,7.62
2023-05-09T23:26:44.302Z,7.57
2023-05-09T23:29:13.403Z,7.59
2023-05-09T23:31:44.639Z,7.56
2023-05-09T23:34:13.589Z,7.52
2023-05-09T23:36:42.520Z,7.46
2023-05-09T23:39:11.398Z,7.36
2023-05-09T23:41:41.371Z,7.25
2023-05-09T23:44:10.216Z,7.27
2023-05-09T23:46:39.261Z,7.30
2023-05-09T23:49:09.530Z,7.23
2023-05-09T23:51:38.236Z,7.22
2023-05-09T23:54:07.486Z,7.20
2023-05-09T23:56:36.201Z,7.13
2023-05-09T23:59:05.478Z,7.13
